Terminal Aerodrome Forecast
Issued by NWS

Home | Current Version | Previous Version | Text Only | Print | Product List | Glossary On
Versions: 1 2 3 4 5 6 7 8 9 10 11 12 13
000
FTUS42 TJSJ 241700
TAFJPS
TAF
TJPS 241729Z 2418/2518 18011KT P6SM FEW025 SCT080
     FM242300 06005KT P6SM FEW030 SCT060
     FM251400 16012KT P6SM FEW030 SCT060
      AMD NOT SKED TIL 250300=

USA.gov is the U.S. government's official web portal to all federal, state and local government web resources and services.